sensor_id;sensor_type;location;lat;lon;timestamp;temperature;humidity
17807;DHT22;9027;48.938;9.182;2022-08-11T00:00:08;20.90;80.70
17807;DHT22;9027;48.938;9.182;2022-08-11T00:01:46;20.90;81.40
17807;DHT22;9027;48.938;9.182;2022-08-11T00:03:19;20.90;81.00
17807;DHT22;9027;48.938;9.182;2022-08-11T00:04:51;20.80;81.60
17807;DHT22;9027;48.938;9.182;2022-08-11T00:06:28;20.90;82.50
17807;DHT22;9027;48.938;9.182;2022-08-11T00:08:02;20.80;81.90
17807;DHT22;9027;48.938;9.182;2022-08-11T00:09:36;20.90;81.50
17807;DHT22;9027;48.938;9.182;2022-08-11T00:11:10;20.80;81.60
17807;DHT22;9027;48.938;9.182;2022-08-11T00:12:42;20.80;82.10
17807;DHT22;9027;48.938;9.182;2022-08-11T00:14:17;20.70;82.40
17807;DHT22;9027;48.938;9.182;2022-08-11T00:15:49;20.70;82.30
17807;DHT22;9027;48.938;9.182;2022-08-11T00:17:27;20.70;82.50
17807;DHT22;9027;48.938;9.182;2022-08-11T00:18:59;20.70;82.30
17807;DHT22;9027;48.938;9.182;2022-08-11T00:20:33;20.70;82.70
17807;DHT22;9027;48.938;9.182;2022-08-11T00:22:06;20.70;82.70
17807;DHT22;9027;48.938;9.182;2022-08-11T00:23:45;20.70;82.60
17807;DHT22;9027;48.938;9.182;2022-08-11T00:25:19;20.70;83.20
17807;DHT22;9027;48.938;9.182;2022-08-11T00:26:53;20.70;83.50
17807;DHT22;9027;48.938;9.182;2022-08-11T00:28:27;20.70;83.40
17807;DHT22;9027;48.938;9.182;2022-08-11T00:30:00;20.60;83.80
17807;DHT22;9027;48.938;9.182;2022-08-11T00:31:33;20.60;84.20
17807;DHT22;9027;48.938;9.182;2022-08-11T00:33:06;20.60;84.00
17807;DHT22;9027;48.938;9.182;2022-08-11T00:34:40;20.50;84.30
17807;DHT22;9027;48.938;9.182;2022-08-11T00:36:16;20.50;84.20
17807;DHT22;9027;48.938;9.182;2022-08-11T00:37:51;20.50;84.80
17807;DHT22;9027;48.938;9.182;2022-08-11T00:39:26;20.50;85.20
17807;DHT22;9027;48.938;9.182;2022-08-11T00:41:07;20.50;85.20
17807;DHT22;9027;48.938;9.182;2022-08-11T00:42:47;20.40;85.10
17807;DHT22;9027;48.938;9.182;2022-08-11T00:44:40;20.40;85.40
17807;DHT22;9027;48.938;9.182;2022-08-11T00:46:18;20.40;85.60
17807;DHT22;9027;48.938;9.182;2022-08-11T00:48:00;20.40;85.60
17807;DHT22;9027;48.938;9.182;2022-08-11T00:49:41;20.30;85.60
17807;DHT22;9027;48.938;9.182;2022-08-11T00:51:22;20.30;86.20
17807;DHT22;9027;48.938;9.182;2022-08-11T00:53:23;20.30;86.00
17807;DHT22;9027;48.938;9.182;2022-08-11T00:55:30;20.30;86.20
17807;DHT22;9027;48.938;9.182;2022-08-11T00:57:18;20.20;86.70
17807;DHT22;9027;48.938;9.182;2022-08-11T00:59:21;20.20;86.90
17807;DHT22;9027;48.938;9.182;2022-08-11T01:01:07;20.20;87.40
17807;DHT22;9027;48.938;9.182;2022-08-11T01:05:33;20.20;87.80
17807;DHT22;9027;48.938;9.182;2022-08-11T01:07:31;20.10;88.10
17807;DHT22;9027;48.938;9.182;2022-08-11T01:09:38;20.10;87.80
17807;DHT22;9027;48.938;9.182;2022-08-11T01:11:43;20.10;88.70
17807;DHT22;9027;48.938;9.182;2022-08-11T01:13:34;20.10;88.60
17807;DHT22;9027;48.938;9.182;2022-08-11T01:17:39;20.00;90.00
17807;DHT22;9027;48.938;9.182;2022-08-11T01:28:52;19.90;90.20
17807;DHT22;9027;48.938;9.182;2022-08-11T01:30:48;19.80;90.30
17807;DHT22;9027;48.938;9.182;2022-08-11T01:40:10;19.60;91.60
17807;DHT22;9027;48.938;9.182;2022-08-11T01:42:02;19.60;91.30
17807;DHT22;9027;48.938;9.182;2022-08-11T01:44:06;19.50;91.40
17807;DHT22;9027;48.938;9.182;2022-08-11T01:46:00;19.50;91.60
17807;DHT22;9027;48.938;9.182;2022-08-11T01:47:37;19.40;91.60
17807;DHT22;9027;48.938;9.182;2022-08-11T01:49:26;19.30;92.00
17807;DHT22;9027;48.938;9.182;2022-08-11T01:51:12;19.20;92.30
17807;DHT22;9027;48.938;9.182;2022-08-11T01:53:03;19.20;92.40
17807;DHT22;9027;48.938;9.182;2022-08-11T01:54:42;19.20;92.60
17807;DHT22;9027;48.938;9.182;2022-08-11T01:56:28;19.20;92.70
17807;DHT22;9027;48.938;9.182;2022-08-11T01:58:07;19.20;92.70
17807;DHT22;9027;48.938;9.182;2022-08-11T01:59:47;19.00;93.00
17807;DHT22;9027;48.938;9.182;2022-08-11T02:01:44;19.00;92.90
17807;DHT22;9027;48.938;9.182;2022-08-11T02:03:25;18.90;93.60
17807;DHT22;9027;48.938;9.182;2022-08-11T02:05:02;19.00;93.60
17807;DHT22;9027;48.938;9.182;2022-08-11T02:06:43;19.00;93.50
17807;DHT22;9027;48.938;9.182;2022-08-11T02:08:39;19.00;93.60
17807;DHT22;9027;48.938;9.182;2022-08-11T02:10:21;18.80;93.60
17807;DHT22;9027;48.938;9.182;2022-08-11T02:12:40;18.70;93.90
17807;DHT22;9027;48.938;9.182;2022-08-11T02:14:23;18.60;94.30
17807;DHT22;9027;48.938;9.182;2022-08-11T02:16:07;18.40;94.70
17807;DHT22;9027;48.938;9.182;2022-08-11T02:17:48;18.20;95.50
17807;DHT22;9027;48.938;9.182;2022-08-11T02:19:25;18.10;96.20
17807;DHT22;9027;48.938;9.182;2022-08-11T02:21:23;18.20;96.50
17807;DHT22;9027;48.938;9.182;2022-08-11T02:23:26;17.90;97.00
17807;DHT22;9027;48.938;9.182;2022-08-11T02:25:20;17.80;97.60
17807;DHT22;9027;48.938;9.182;2022-08-11T02:27:01;17.80;98.10
17807;DHT22;9027;48.938;9.182;2022-08-11T02:28:44;17.60;98.80
17807;DHT22;9027;48.938;9.182;2022-08-11T02:30:23;17.50;99.30
17807;DHT22;9027;48.938;9.182;2022-08-11T02:32:03;17.50;99.70
17807;DHT22;9027;48.938;9.182;2022-08-11T02:34:03;17.40;99.90
17807;DHT22;9027;48.938;9.182;2022-08-11T02:35:41;17.40;99.90
17807;DHT22;9027;48.938;9.182;2022-08-11T02:37:20;17.30;99.90
17807;DHT22;9027;48.938;9.182;2022-08-11T02:39:01;17.30;99.90
17807;DHT22;9027;48.938;9.182;2022-08-11T02:40:44;17.30;99.90
17807;DHT22;9027;48.938;9.182;2022-08-11T02:42:37;17.20;99.90
17807;DHT22;9027;48.938;9.182;2022-08-11T02:44:26;17.20;99.90
17807;DHT22;9027;48.938;9.182;2022-08-11T02:46:15;17.00;99.90
17807;DHT22;9027;48.938;9.182;2022-08-11T02:47:57;16.90;99.90
17807;DHT22;9027;48.938;9.182;2022-08-11T02:49:55;16.80;99.90
17807;DHT22;9027;48.938;9.182;2022-08-11T02:51:36;16.70;99.90
17807;DHT22;9027;48.938;9.182;2022-08-11T02:53:13;16.70;99.90
17807;DHT22;9027;48.938;9.182;2022-08-11T02:55:01;16.70;99.90
17807;DHT22;9027;48.938;9.182;2022-08-11T02:56:44;16.70;99.90
17807;DHT22;9027;48.938;9.182;2022-08-11T02:58:32;16.90;99.90
17807;DHT22;9027;48.938;9.182;2022-08-11T03:00:09;17.00;99.90
17807;DHT22;9027;48.938;9.182;2022-08-11T03:01:49;17.10;99.90
17807;DHT22;9027;48.938;9.182;2022-08-11T03:03:29;17.20;99.90
17807;DHT22;9027;48.938;9.182;2022-08-11T03:05:17;17.30;99.90
17807;DHT22;9027;48.938;9.182;2022-08-11T03:06:58;17.40;99.90
17807;DHT22;9027;48.938;9.182;2022-08-11T03:08:49;17.50;99.90
17807;DHT22;9027;48.938;9.182;2022-08-11T03:10:28;17.50;99.90
17807;DHT22;9027;48.938;9.182;2022-08-11T03:12:08;17.40;99.90
17807;DHT22;9027;48.938;9.182;2022-08-11T03:14:11;17.30;99.90
17807;DHT22;9027;48.938;9.182;2022-08-11T03:16:14;17.10;99.90
17807;DHT22;9027;48.938;9.182;2022-08-11T03:18:16;17.00;99.90
17807;DHT22;9027;48.938;9.182;2022-08-11T03:19:59;16.80;99.90
17807;DHT22;9027;48.938;9.182;2022-08-11T03:21:37;16.90;99.90
17807;DHT22;9027;48.938;9.182;2022-08-11T03:23:17;16.70;99.90
17807;DHT22;9027;48.938;9.182;2022-08-11T03:24:59;16.70;99.90
17807;DHT22;9027;48.938;9.182;2022-08-11T03:26:42;16.80;99.90
17807;DHT22;9027;48.938;9.182;2022-08-11T03:28:25;16.70;99.90
17807;DHT22;9027;48.938;9.182;2022-08-11T03:30:09;16.60;99.90
17807;DHT22;9027;48.938;9.182;2022-08-11T03:31:45;16.70;99.90
17807;DHT22;9027;48.938;9.182;2022-08-11T03:33:22;16.80;99.90
17807;DHT22;9027;48.938;9.182;2022-08-11T03:35:16;16.70;99.90
17807;DHT22;9027;48.938;9.182;2022-08-11T03:37:04;16.70;99.90
17807;DHT22;9027;48.938;9.182;2022-08-11T03:38:47;16.70;99.90
17807;DHT22;9027;48.938;9.182;2022-08-11T03:40:40;16.80;99.90
17807;DHT22;9027;48.938;9.182;2022-08-11T03:42:40;16.90;99.90
17807;DHT22;9027;48.938;9.182;2022-08-11T03:44:31;16.80;99.90
17807;DHT22;9027;48.938;9.182;2022-08-11T03:46:09;16.70;99.90
17807;DHT22;9027;48.938;9.182;2022-08-11T03:47:56;16.50;99.90
17807;DHT22;9027;48.938;9.182;2022-08-11T03:49:37;16.40;99.90
17807;DHT22;9027;48.938;9.182;2022-08-11T03:51:18;16.40;99.90
17807;DHT22;9027;48.938;9.182;2022-08-11T03:53:04;16.30;99.90
17807;DHT22;9027;48.938;9.182;2022-08-11T03:54:44;16.30;99.90
17807;DHT22;9027;48.938;9.182;2022-08-11T04:03:31;16.10;99.90
17807;DHT22;9027;48.938;9.182;2022-08-11T04:12:00;16.10;99.90
17807;DHT22;9027;48.938;9.182;2022-08-11T04:16:32;16.30;99.90
17807;DHT22;9027;48.938;9.182;2022-08-11T04:18:27;16.20;99.90
17807;DHT22;9027;48.938;9.182;2022-08-11T04:20:28;16.20;99.90
17807;DHT22;9027;48.938;9.182;2022-08-11T04:22:30;16.20;99.90
17807;DHT22;9027;48.938;9.182;2022-08-11T04:28:53;16.60;99.90
17807;DHT22;9027;48.938;9.182;2022-08-11T04:30:27;16.70;99.90
17807;DHT22;9027;48.938;9.182;2022-08-11T04:32:30;16.80;99.90
17807;DHT22;9027;48.938;9.182;2022-08-11T04:34:41;17.00;99.90
17807;DHT22;9027;48.938;9.182;2022-08-11T04:36:36;17.20;99.90
17807;DHT22;9027;48.938;9.182;2022-08-11T04:39:03;17.50;99.90
17807;DHT22;9027;48.938;9.182;2022-08-11T04:40:48;17.60;99.90
17807;DHT22;9027;48.938;9.182;2022-08-11T04:42:51;17.70;99.90
17807;DHT22;9027;48.938;9.182;2022-08-11T04:45:19;17.80;99.90
17807;DHT22;9027;48.938;9.182;2022-08-11T04:47:13;18.20;99.90
17807;DHT22;9027;48.938;9.182;2022-08-11T04:49:32;18.70;99.90
17807;DHT22;9027;48.938;9.182;2022-08-11T04:51:43;19.00;99.90
17807;DHT22;9027;48.938;9.182;2022-08-11T04:53:44;19.30;99.90
17807;DHT22;9027;48.938;9.182;2022-08-11T04:55:51;19.30;99.90
17807;DHT22;9027;48.938;9.182;2022-08-11T04:57:52;19.80;99.90
17807;DHT22;9027;48.938;9.182;2022-08-11T05:00:05;20.10;99.90
17807;DHT22;9027;48.938;9.182;2022-08-11T05:04:20;21.20;99.10
17807;DHT22;9027;48.938;9.182;2022-08-11T05:08:47;22.20;95.50
17807;DHT22;9027;48.938;9.182;2022-08-11T05:10:31;22.60;95.10
17807;DHT22;9027;48.938;9.182;2022-08-11T05:14:26;23.40;92.30
17807;DHT22;9027;48.938;9.182;2022-08-11T05:16:20;24.00;91.00
17807;DHT22;9027;48.938;9.182;2022-08-11T05:18:14;24.40;90.10
17807;DHT22;9027;48.938;9.182;2022-08-11T05:20:18;24.60;89.20
17807;DHT22;9027;48.938;9.182;2022-08-11T05:22:11;25.00;86.50
17807;DHT22;9027;48.938;9.182;2022-08-11T05:24:06;25.00;85.80
17807;DHT22;9027;48.938;9.182;2022-08-11T05:25:59;25.10;85.10
17807;DHT22;9027;48.938;9.182;2022-08-11T05:27:55;25.10;83.20
17807;DHT22;9027;48.938;9.182;2022-08-11T05:29:50;25.30;84.10
17807;DHT22;9027;48.938;9.182;2022-08-11T05:31:47;25.90;82.70
17807;DHT22;9027;48.938;9.182;2022-08-11T05:33:46;26.30;79.80
17807;DHT22;9027;48.938;9.182;2022-08-11T05:35:40;26.80;77.50
17807;DHT22;9027;48.938;9.182;2022-08-11T05:37:19;27.20;76.40
17807;DHT22;9027;48.938;9.182;2022-08-11T05:38:56;27.50;75.20
17807;DHT22;9027;48.938;9.182;2022-08-11T05:40:48;27.60;74.50
17807;DHT22;9027;48.938;9.182;2022-08-11T05:42:41;27.70;73.60
17807;DHT22;9027;48.938;9.182;2022-08-11T05:44:32;27.80;72.70
17807;DHT22;9027;48.938;9.182;2022-08-11T05:46:23;27.30;74.20
17807;DHT22;9027;48.938;9.182;2022-08-11T05:48:15;27.20;75.30
17807;DHT22;9027;48.938;9.182;2022-08-11T05:50:08;26.90;75.30
17807;DHT22;9027;48.938;9.182;2022-08-11T05:52:02;26.00;76.60
17807;DHT22;9027;48.938;9.182;2022-08-11T05:53:55;26.00;77.00
17807;DHT22;9027;48.938;9.182;2022-08-11T05:55:44;26.60;75.60
17807;DHT22;9027;48.938;9.182;2022-08-11T05:57:36;26.70;76.30
17807;DHT22;9027;48.938;9.182;2022-08-11T05:59:11;26.70;76.30
17807;DHT22;9027;48.938;9.182;2022-08-11T06:00:45;27.10;75.90
17807;DHT22;9027;48.938;9.182;2022-08-11T06:02:17;27.50;74.70
17807;DHT22;9027;48.938;9.182;2022-08-11T06:03:52;27.70;71.70
17807;DHT22;9027;48.938;9.182;2022-08-11T06:05:43;27.50;71.40
17807;DHT22;9027;48.938;9.182;2022-08-11T06:07:16;27.60;71.90
17807;DHT22;9027;48.938;9.182;2022-08-11T06:08:48;27.60;69.90
17807;DHT22;9027;48.938;9.182;2022-08-11T06:10:29;27.70;69.80
17807;DHT22;9027;48.938;9.182;2022-08-11T06:12:06;27.70;68.20
17807;DHT22;9027;48.938;9.182;2022-08-11T06:13:42;27.70;69.00
17807;DHT22;9027;48.938;9.182;2022-08-11T06:15:15;27.80;68.10
17807;DHT22;9027;48.938;9.182;2022-08-11T06:16:48;27.80;69.00
17807;DHT22;9027;48.938;9.182;2022-08-11T06:18:21;27.80;68.90
17807;DHT22;9027;48.938;9.182;2022-08-11T06:19:58;27.70;68.80
17807;DHT22;9027;48.938;9.182;2022-08-11T06:21:33;27.80;69.00
17807;DHT22;9027;48.938;9.182;2022-08-11T06:23:06;27.90;68.60
17807;DHT22;9027;48.938;9.182;2022-08-11T06:24:41;27.60;67.20
17807;DHT22;9027;48.938;9.182;2022-08-11T06:26:22;27.50;68.30
17807;DHT22;9027;48.938;9.182;2022-08-11T06:27:55;27.60;68.10
17807;DHT22;9027;48.938;9.182;2022-08-11T06:29:27;27.60;67.40
17807;DHT22;9027;48.938;9.182;2022-08-11T06:31:02;27.60;67.40
17807;DHT22;9027;48.938;9.182;2022-08-11T06:32:35;27.40;67.20
17807;DHT22;9027;48.938;9.182;2022-08-11T06:34:11;26.90;68.20
17807;DHT22;9027;48.938;9.182;2022-08-11T06:35:56;26.70;70.20
17807;DHT22;9027;48.938;9.182;2022-08-11T06:37:39;26.80;70.80
17807;DHT22;9027;48.938;9.182;2022-08-11T06:39:21;27.00;70.30
17807;DHT22;9027;48.938;9.182;2022-08-11T06:40:58;27.10;71.00
17807;DHT22;9027;48.938;9.182;2022-08-11T06:42:53;27.10;69.40
17807;DHT22;9027;48.938;9.182;2022-08-11T06:44:31;27.20;69.20
17807;DHT22;9027;48.938;9.182;2022-08-11T06:46:09;27.20;69.60
17807;DHT22;9027;48.938;9.182;2022-08-11T06:47:45;27.30;69.20
17807;DHT22;9027;48.938;9.182;2022-08-11T06:49:33;27.30;69.20
17807;DHT22;9027;48.938;9.182;2022-08-11T06:51:23;27.40;69.80
17807;DHT22;9027;48.938;9.182;2022-08-11T06:52:55;27.50;69.50
17807;DHT22;9027;48.938;9.182;2022-08-11T06:54:31;27.50;70.90
17807;DHT22;9027;48.938;9.182;2022-08-11T06:56:04;27.60;69.90
17807;DHT22;9027;48.938;9.182;2022-08-11T06:57:56;27.40;69.00
17807;DHT22;9027;48.938;9.182;2022-08-11T06:59:46;27.50;71.40
17807;DHT22;9027;48.938;9.182;2022-08-11T07:01:56;27.70;69.40
17807;DHT22;9027;48.938;9.182;2022-08-11T07:03:43;27.90;68.50
17807;DHT22;9027;48.938;9.182;2022-08-11T07:05:22;28.00;67.40
17807;DHT22;9027;48.938;9.182;2022-08-11T07:07:15;28.30;66.90
17807;DHT22;9027;48.938;9.182;2022-08-11T07:09:36;28.30;67.10
17807;DHT22;9027;48.938;9.182;2022-08-11T07:11:52;28.50;66.70
17807;DHT22;9027;48.938;9.182;2022-08-11T07:13:43;28.60;66.50
17807;DHT22;9027;48.938;9.182;2022-08-11T07:15:34;28.80;68.30
17807;DHT22;9027;48.938;9.182;2022-08-11T07:17:15;28.90;67.00
17807;DHT22;9027;48.938;9.182;2022-08-11T07:18:48;28.90;65.40
17807;DHT22;9027;48.938;9.182;2022-08-11T07:20:39;29.00;65.60
17807;DHT22;9027;48.938;9.182;2022-08-11T07:22:30;29.20;65.10
17807;DHT22;9027;48.938;9.182;2022-08-11T07:24:25;29.30;64.20
17807;DHT22;9027;48.938;9.182;2022-08-11T07:26:18;29.40;65.50
17807;DHT22;9027;48.938;9.182;2022-08-11T07:28:11;29.50;64.00
17807;DHT22;9027;48.938;9.182;2022-08-11T07:30:05;29.50;64.70
17807;DHT22;9027;48.938;9.182;2022-08-11T07:31:42;29.80;64.00
17807;DHT22;9027;48.938;9.182;2022-08-11T07:33:21;29.70;64.30
17807;DHT22;9027;48.938;9.182;2022-08-11T07:34:58;29.90;65.20
17807;DHT22;9027;48.938;9.182;2022-08-11T07:36:38;30.10;63.60
17807;DHT22;9027;48.938;9.182;2022-08-11T07:38:19;30.20;62.40
17807;DHT22;9027;48.938;9.182;2022-08-11T07:39:52;30.30;62.60
17807;DHT22;9027;48.938;9.182;2022-08-11T07:41:27;30.30;60.70
17807;DHT22;9027;48.938;9.182;2022-08-11T07:43:05;30.10;61.50
17807;DHT22;9027;48.938;9.182;2022-08-11T07:44:43;29.40;62.30
17807;DHT22;9027;48.938;9.182;2022-08-11T07:46:37;29.40;62.40
17807;DHT22;9027;48.938;9.182;2022-08-11T07:48:33;29.60;63.10
17807;DHT22;9027;48.938;9.182;2022-08-11T07:50:24;29.70;63.20
17807;DHT22;9027;48.938;9.182;2022-08-11T07:52:14;29.80;63.00
17807;DHT22;9027;48.938;9.182;2022-08-11T07:54:03;29.60;61.90
17807;DHT22;9027;48.938;9.182;2022-08-11T07:55:36;29.60;62.70
17807;DHT22;9027;48.938;9.182;2022-08-11T07:57:10;29.50;62.30
17807;DHT22;9027;48.938;9.182;2022-08-11T07:59:03;29.50;62.60
17807;DHT22;9027;48.938;9.182;2022-08-11T08:00:55;29.90;62.00
17807;DHT22;9027;48.938;9.182;2022-08-11T08:02:45;30.20;61.50
17807;DHT22;9027;48.938;9.182;2022-08-11T08:04:35;30.10;60.60
17807;DHT22;9027;48.938;9.182;2022-08-11T08:06:25;30.00;60.60
17807;DHT22;9027;48.938;9.182;2022-08-11T08:08:16;29.90;61.40
17807;DHT22;9027;48.938;9.182;2022-08-11T08:10:07;29.70;60.60
17807;DHT22;9027;48.938;9.182;2022-08-11T08:11:59;29.00;63.80
17807;DHT22;9027;48.938;9.182;2022-08-11T08:13:52;29.40;62.70
17807;DHT22;9027;48.938;9.182;2022-08-11T08:15:42;29.10;62.80
17807;DHT22;9027;48.938;9.182;2022-08-11T08:17:33;28.90;62.70
17807;DHT22;9027;48.938;9.182;2022-08-11T08:19:27;28.70;62.90
17807;DHT22;9027;48.938;9.182;2022-08-11T08:20:59;28.80;62.50
17807;DHT22;9027;48.938;9.182;2022-08-11T08:22:42;28.70;62.40
17807;DHT22;9027;48.938;9.182;2022-08-11T08:24:14;28.80;64.30
17807;DHT22;9027;48.938;9.182;2022-08-11T08:25:50;29.10;63.60
17807;DHT22;9027;48.938;9.182;2022-08-11T08:27:23;29.20;62.50
17807;DHT22;9027;48.938;9.182;2022-08-11T08:29:00;29.30;61.50
17807;DHT22;9027;48.938;9.182;2022-08-11T08:30:48;29.50;62.40
17807;DHT22;9027;48.938;9.182;2022-08-11T08:32:22;29.80;61.20
17807;DHT22;9027;48.938;9.182;2022-08-11T08:33:54;30.20;59.90
17807;DHT22;9027;48.938;9.182;2022-08-11T08:35:26;29.00;60.50
17807;DHT22;9027;48.938;9.182;2022-08-11T08:37:00;28.70;62.60
17807;DHT22;9027;48.938;9.182;2022-08-11T08:38:32;28.70;62.90
17807;DHT22;9027;48.938;9.182;2022-08-11T08:40:06;28.70;61.80
17807;DHT22;9027;48.938;9.182;2022-08-11T08:41:39;28.80;61.40
17807;DHT22;9027;48.938;9.182;2022-08-11T08:43:14;29.00;62.20
17807;DHT22;9027;48.938;9.182;2022-08-11T08:44:54;29.50;62.40
17807;DHT22;9027;48.938;9.182;2022-08-11T08:46:32;29.70;60.30
17807;DHT22;9027;48.938;9.182;2022-08-11T08:48:10;30.00;60.50
17807;DHT22;9027;48.938;9.182;2022-08-11T08:49:45;29.70;59.70
17807;DHT22;9027;48.938;9.182;2022-08-11T08:51:21;29.80;59.70
17807;DHT22;9027;48.938;9.182;2022-08-11T08:53:05;29.80;59.20
17807;DHT22;9027;48.938;9.182;2022-08-11T08:54:41;30.10;59.40
17807;DHT22;9027;48.938;9.182;2022-08-11T08:56:18;30.20;58.20
17807;DHT22;9027;48.938;9.182;2022-08-11T08:57:53;30.10;58.10
17807;DHT22;9027;48.938;9.182;2022-08-11T08:59:31;29.90;58.30
17807;DHT22;9027;48.938;9.182;2022-08-11T09:01:06;29.70;57.60
17807;DHT22;9027;48.938;9.182;2022-08-11T09:02:40;29.10;58.60
17807;DHT22;9027;48.938;9.182;2022-08-11T09:04:13;28.90;59.30
17807;DHT22;9027;48.938;9.182;2022-08-11T09:05:46;28.70;59.40
17807;DHT22;9027;48.938;9.182;2022-08-11T09:07:21;29.00;59.80
17807;DHT22;9027;48.938;9.182;2022-08-11T09:08:53;29.10;58.50
17807;DHT22;9027;48.938;9.182;2022-08-11T09:10:25;29.60;58.40
17807;DHT22;9027;48.938;9.182;2022-08-11T09:12:01;29.70;57.40
17807;DHT22;9027;48.938;9.182;2022-08-11T09:13:35;29.60;58.30
17807;DHT22;9027;48.938;9.182;2022-08-11T09:15:10;30.00;57.20
17807;DHT22;9027;48.938;9.182;2022-08-11T09:16:46;30.10;56.60
17807;DHT22;9027;48.938;9.182;2022-08-11T09:18:17;30.20;56.50
17807;DHT22;9027;48.938;9.182;2022-08-11T09:19:53;29.90;56.50
17807;DHT22;9027;48.938;9.182;2022-08-11T09:21:28;29.50;56.80
17807;DHT22;9027;48.938;9.182;2022-08-11T09:23:02;29.80;56.20
17807;DHT22;9027;48.938;9.182;2022-08-11T09:24:53;29.70;56.30
17807;DHT22;9027;48.938;9.182;2022-08-11T09:26:43;30.20;55.50
17807;DHT22;9027;48.938;9.182;2022-08-11T09:28:33;30.10;55.40
17807;DHT22;9027;48.938;9.182;2022-08-11T09:30:07;29.50;54.40
17807;DHT22;9027;48.938;9.182;2022-08-11T09:31:42;29.10;54.30
17807;DHT22;9027;48.938;9.182;2022-08-11T09:33:16;28.80;56.00
17807;DHT22;9027;48.938;9.182;2022-08-11T09:34:49;29.20;55.90
17807;DHT22;9027;48.938;9.182;2022-08-11T09:36:22;29.60;55.80
17807;DHT22;9027;48.938;9.182;2022-08-11T09:38:14;29.80;54.80
17807;DHT22;9027;48.938;9.182;2022-08-11T09:40:06;29.20;54.70
17807;DHT22;9027;48.938;9.182;2022-08-11T09:41:56;29.50;54.90
17807;DHT22;9027;48.938;9.182;2022-08-11T09:43:28;29.90;55.40
17807;DHT22;9027;48.938;9.182;2022-08-11T09:45:19;30.40;54.50
17807;DHT22;9027;48.938;9.182;2022-08-11T09:46:51;30.40;53.00
17807;DHT22;9027;48.938;9.182;2022-08-11T09:48:26;30.50;54.00
17807;DHT22;9027;48.938;9.182;2022-08-11T09:50:00;30.60;52.90
17807;DHT22;9027;48.938;9.182;2022-08-11T09:51:32;30.70;52.30
17807;DHT22;9027;48.938;9.182;2022-08-11T09:53:05;30.20;52.80
17807;DHT22;9027;48.938;9.182;2022-08-11T09:54:37;29.90;52.90
17807;DHT22;9027;48.938;9.182;2022-08-11T09:56:13;30.10;53.80
17807;DHT22;9027;48.938;9.182;2022-08-11T09:58:03;30.30;53.50
17807;DHT22;9027;48.938;9.182;2022-08-11T09:59:51;30.40;52.80
17807;DHT22;9027;48.938;9.182;2022-08-11T10:01:28;30.40;52.30
17807;DHT22;9027;48.938;9.182;2022-08-11T10:03:01;30.40;52.60
17807;DHT22;9027;48.938;9.182;2022-08-11T10:04:41;30.80;52.50
17807;DHT22;9027;48.938;9.182;2022-08-11T10:06:14;31.10;51.70
17807;DHT22;9027;48.938;9.182;2022-08-11T10:08:04;31.40;51.10
17807;DHT22;9027;48.938;9.182;2022-08-11T10:09:41;31.60;50.70
17807;DHT22;9027;48.938;9.182;2022-08-11T10:11:18;31.50;49.70
17807;DHT22;9027;48.938;9.182;2022-08-11T10:12:57;30.60;50.80
17807;DHT22;9027;48.938;9.182;2022-08-11T10:14:31;30.50;51.60
17807;DHT22;9027;48.938;9.182;2022-08-11T10:16:17;30.70;52.20
17807;DHT22;9027;48.938;9.182;2022-08-11T10:17:52;31.10;51.70
17807;DHT22;9027;48.938;9.182;2022-08-11T10:19:41;31.50;51.60
17807;DHT22;9027;48.938;9.182;2022-08-11T10:21:24;31.90;50.60
17807;DHT22;9027;48.938;9.182;2022-08-11T10:22:58;32.30;50.40
17807;DHT22;9027;48.938;9.182;2022-08-11T10:24:48;32.10;48.20
17807;DHT22;9027;48.938;9.182;2022-08-11T10:26:42;31.90;48.90
17807;DHT22;9027;48.938;9.182;2022-08-11T10:28:28;32.00;49.40
17807;DHT22;9027;48.938;9.182;2022-08-11T10:30:00;31.70;49.10
17807;DHT22;9027;48.938;9.182;2022-08-11T10:31:50;31.90;49.30
17807;DHT22;9027;48.938;9.182;2022-08-11T10:33:43;32.00;48.90
17807;DHT22;9027;48.938;9.182;2022-08-11T10:35:32;32.30;49.10
17807;DHT22;9027;48.938;9.182;2022-08-11T10:37:04;32.30;48.10
17807;DHT22;9027;48.938;9.182;2022-08-11T10:38:44;32.10;48.30
17807;DHT22;9027;48.938;9.182;2022-08-11T10:40:22;32.20;48.70
17807;DHT22;9027;48.938;9.182;2022-08-11T10:41:56;32.40;47.40
17807;DHT22;9027;48.938;9.182;2022-08-11T10:43:46;32.60;47.70
17807;DHT22;9027;48.938;9.182;2022-08-11T10:45:17;32.90;47.30
17807;DHT22;9027;48.938;9.182;2022-08-11T10:47:09;32.90;46.60
17807;DHT22;9027;48.938;9.182;2022-08-11T10:49:00;33.10;46.80
17807;DHT22;9027;48.938;9.182;2022-08-11T10:50:34;33.10;46.70
17807;DHT22;9027;48.938;9.182;2022-08-11T10:52:23;33.10;46.30
17807;DHT22;9027;48.938;9.182;2022-08-11T10:54:14;32.40;47.60
17807;DHT22;9027;48.938;9.182;2022-08-11T10:56:09;32.50;47.90
17807;DHT22;9027;48.938;9.182;2022-08-11T10:57:58;32.60;46.70
17807;DHT22;9027;48.938;9.182;2022-08-11T10:59:48;32.30;46.80
17807;DHT22;9027;48.938;9.182;2022-08-11T11:01:34;31.50;46.90
17807;DHT22;9027;48.938;9.182;2022-08-11T11:03:09;31.50;47.20
17807;DHT22;9027;48.938;9.182;2022-08-11T11:04:53;31.90;47.30
17807;DHT22;9027;48.938;9.182;2022-08-11T11:06:35;32.00;46.80
17807;DHT22;9027;48.938;9.182;2022-08-11T11:08:15;31.80;46.50
17807;DHT22;9027;48.938;9.182;2022-08-11T11:10:05;31.40;46.90
17807;DHT22;9027;48.938;9.182;2022-08-11T11:11:42;31.20;47.80
17807;DHT22;9027;48.938;9.182;2022-08-11T11:13:35;31.70;48.30
17807;DHT22;9027;48.938;9.182;2022-08-11T11:15:29;31.90;47.00
17807;DHT22;9027;48.938;9.182;2022-08-11T11:17:25;32.30;46.80
17807;DHT22;9027;48.938;9.182;2022-08-11T11:19:16;32.50;45.40
17807;DHT22;9027;48.938;9.182;2022-08-11T11:20:59;32.30;45.40
17807;DHT22;9027;48.938;9.182;2022-08-11T11:22:35;32.30;46.00
17807;DHT22;9027;48.938;9.182;2022-08-11T11:24:15;32.40;46.10
17807;DHT22;9027;48.938;9.182;2022-08-11T11:26:17;32.40;46.10
17807;DHT22;9027;48.938;9.182;2022-08-11T11:28:11;32.70;45.50
17807;DHT22;9027;48.938;9.182;2022-08-11T11:29:53;32.90;45.60
17807;DHT22;9027;48.938;9.182;2022-08-11T11:31:35;33.20;45.20
17807;DHT22;9027;48.938;9.182;2022-08-11T11:33:20;33.40;44.50
17807;DHT22;9027;48.938;9.182;2022-08-11T11:35:08;33.30;45.00
17807;DHT22;9027;48.938;9.182;2022-08-11T11:36:46;33.60;44.60
17807;DHT22;9027;48.938;9.182;2022-08-11T11:38:20;33.20;43.10
17807;DHT22;9027;48.938;9.182;2022-08-11T11:39:54;32.90;44.60
17807;DHT22;9027;48.938;9.182;2022-08-11T11:41:27;32.80;44.30
17807;DHT22;9027;48.938;9.182;2022-08-11T11:42:58;32.60;44.00
17807;DHT22;9027;48.938;9.182;2022-08-11T11:44:32;32.50;44.80
17807;DHT22;9027;48.938;9.182;2022-08-11T11:46:06;32.30;45.10
17807;DHT22;9027;48.938;9.182;2022-08-11T11:47:40;32.10;45.00
17807;DHT22;9027;48.938;9.182;2022-08-11T11:49:16;32.20;44.90
17807;DHT22;9027;48.938;9.182;2022-08-11T11:50:48;32.40;44.50
17807;DHT22;9027;48.938;9.182;2022-08-11T11:52:21;32.60;44.40
17807;DHT22;9027;48.938;9.182;2022-08-11T11:53:55;32.30;44.20
17807;DHT22;9027;48.938;9.182;2022-08-11T11:55:29;32.40;44.80
17807;DHT22;9027;48.938;9.182;2022-08-11T11:57:02;32.60;44.10